Caswell, Maine
Current Conditions -  °F | °C
As of 2:54 AM on Monday 26 Jan 2015 (Local Time) from KCAR Reporting Station
Clear Clear  
Wind Chill: -17°   Ceiling: Unl
Heat Index:   Visibility: 10mi
Dew Point: -12°   Wind: 12mph
Humidity: 57%   Direction: 300°WNW
Pressure: 29.92"   Gusts: NA
Location:  46.9626°N, 67.8576°W
Report Text: KCAR 260754Z AUTO 30010KT 10SM CLR M18/M24 A2992 RMK AO2 SLP150 T11781244
Loading
Personal Weather Stations






























Interactive Weather Map New forecast layout! Learn more

10-Day Weather Forecast

Advertisements
Track Severe Weather on mobile